Time;durP1;ratioP1;P1;durP2;ratioP2;P2;SDS_P1;SDS_P2;PMS_P1;PMS_P2;Temp;Humidity;BMP_temperature;BMP_pressure;BME280_temperature;BME280_humidity;BME280_pressure;Samples;Min_cycle;Max_cycle;Signal;HPM_P1;HPM_P2
2023/12/05 00:00:34;;;;;;;21.52;14.88;;;0.40;99.90;;;;;;5032747;28;20406;-70
2023/12/05 00:03:01;;;;;;;18.70;14.10;;;0.40;99.90;;;;;;5033672;28;20053;-69
2023/12/05 00:05:27;;;;;;;19.23;14.13;;;0.40;99.90;;;;;;5033077;28;20090;-69
2023/12/05 00:07:52;;;;;;;22.73;14.20;;;0.40;99.90;;;;;;5032386;28;20045;-68
2023/12/05 00:10:19;;;;;;;19.58;13.73;;;0.50;99.90;;;;;;5033095;28;20055;-69
2023/12/05 00:12:45;;;;;;;19.35;14.57;;;0.40;99.90;;;;;;5016203;28;20049;-69
2023/12/05 00:15:10;;;;;;;19.40;13.15;;;0.40;99.90;;;;;;5032982;28;20403;-69
2023/12/05 00:17:36;;;;;;;17.73;13.55;;;0.70;99.90;;;;;;5032355;28;20053;-69
2023/12/05 00:20:03;;;;;;;18.73;13.77;;;0.30;99.90;;;;;;5033322;28;20057;-68
2023/12/05 00:22:29;;;;;;;20.60;14.38;;;0.30;99.90;;;;;;5032078;28;20060;-69
2023/12/05 00:24:55;;;;;;;19.10;13.35;;;0.30;99.90;;;;;;5031975;28;20107;-69
2023/12/05 00:27:20;;;;;;;17.27;12.52;;;0.30;99.90;;;;;;5032698;28;20042;-69
2023/12/05 00:29:49;;;;;;;17.98;13.75;;;0.20;99.90;;;;;;5032159;28;20085;-69
2023/12/05 00:32:15;;;;;;;18.45;13.95;;;0.20;99.90;;;;;;5032552;28;20573;-69
2023/12/05 00:34:46;;;;;;;19.23;14.10;;;0.20;99.90;;;;;;5031960;28;20054;-69
2023/12/05 00:37:11;;;;;;;19.02;14.25;;;0.20;99.90;;;;;;5031437;28;20398;-70
2023/12/05 00:39:37;;;;;;;20.45;14.43;;;0.70;99.90;;;;;;5031828;28;20120;-69
2023/12/05 00:42:03;;;;;;;20.20;15.80;;;0.10;99.90;;;;;;5032967;28;20056;-69
2023/12/05 00:44:29;;;;;;;22.40;15.75;;;0.10;99.90;;;;;;5031660;28;20045;-69
2023/12/05 00:46:55;;;;;;;19.40;14.25;;;0.10;99.90;;;;;;5031542;28;20498;-69
2023/12/05 00:49:20;;;;;;;21.45;15.95;;;0.50;99.90;;;;;;5032393;28;20050;-70
2023/12/05 00:51:46;;;;;;;19.67;15.57;;;0.10;99.90;;;;;;5031843;28;20045;-70
2023/12/05 00:54:12;;;;;;;21.33;16.35;;;0.10;99.90;;;;;;5032700;28;20128;-72
2023/12/05 00:56:37;;;;;;;23.00;16.60;;;0.90;99.90;;;;;;5031628;28;20057;-69
2023/12/05 00:59:03;;;;;;;21.15;16.35;;;0.10;99.90;;;;;;5032705;28;20053;-68
2023/12/05 01:01:29;;;;;;;22.80;15.75;;;0.10;99.90;;;;;;5032348;28;20398;-69
2023/12/05 01:03:56;;;;;;;22.42;15.65;;;0.20;99.90;;;;;;5031680;28;20064;-68
2023/12/05 01:06:23;;;;;;;22.02;16.17;;;0.20;99.90;;;;;;5030945;28;20050;-68
2023/12/05 01:08:49;;;;;;;22.77;16.25;;;0.10;99.90;;;;;;5032382;28;20049;-69
2023/12/05 01:11:15;;;;;;;21.08;15.25;;;0.20;99.90;;;;;;5032234;28;20442;-71
2023/12/05 01:13:42;;;;;;;20.80;15.95;;;0.20;99.90;;;;;;5032672;28;20089;-68
2023/12/05 01:16:08;;;;;;;22.85;16.73;;;0.20;99.90;;;;;;5032308;28;20042;-69
2023/12/05 01:18:33;;;;;;;23.40;17.35;;;0.20;99.90;;;;;;5032078;28;20578;-68
2023/12/05 01:20:59;;;;;;;24.13;17.52;;;0.20;99.90;;;;;;5032219;28;20057;-68
2023/12/05 01:23:25;;;;;;;24.38;17.58;;;0.20;99.90;;;;;;5014535;28;20041;-68
2023/12/05 01:25:50;;;;;;;22.75;16.60;;;0.20;99.90;;;;;;5030925;28;20518;-69
2023/12/05 01:28:16;;;;;;;22.17;17.50;;;0.60;99.90;;;;;;5014753;28;20445;-72
2023/12/05 01:30:42;;;;;;;22.15;17.33;;;0.20;99.90;;;;;;5032193;28;20057;-69
2023/12/05 01:33:08;;;;;;;23.15;17.02;;;0.20;99.90;;;;;;5036543;28;20060;-68
2023/12/05 01:35:33;;;;;;;22.40;16.30;;;0.20;99.90;;;;;;5037118;28;20411;-69
2023/12/05 01:37:59;;;;;;;22.02;16.17;;;0.30;99.90;;;;;;5037630;28;20187;-68
2023/12/05 01:40:25;;;;;;;22.60;15.80;;;0.20;99.90;;;;;;5037298;28;20048;-69
2023/12/05 01:42:51;;;;;;;23.25;16.27;;;0.20;99.90;;;;;;5037682;28;20156;-69
2023/12/05 01:45:17;;;;;;;22.73;17.40;;;0.20;99.90;;;;;;5038725;28;20128;-69
2023/12/05 01:47:43;;;;;;;23.88;16.55;;;0.20;99.90;;;;;;5038387;28;20049;-68
2023/12/05 01:50:18;;;;;;;22.27;17.05;;;0.70;99.90;;;;;;5038577;28;20517;-69
2023/12/05 01:52:51;;;;;;;20.17;15.48;;;0.50;99.90;;;;;;5037237;28;20045;-69
2023/12/05 01:55:17;;;;;;;20.42;14.95;;;0.20;99.90;;;;;;5038817;28;20055;-69
2023/12/05 01:57:46;;;;;;;23.08;16.65;;;1.00;99.90;;;;;;5038228;28;20053;-70
2023/12/05 02:00:13;;;;;;;21.20;16.15;;;0.20;99.90;;;;;;5038481;28;20049;-70
2023/12/05 02:02:40;;;;;;;26.27;18.15;;;0.20;99.90;;;;;;5038183;28;20188;-69
2023/12/05 02:05:06;;;;;;;22.13;16.42;;;0.20;99.90;;;;;;5037442;28;20049;-69
2023/12/05 02:07:32;;;;;;;24.13;17.52;;;0.10;99.90;;;;;;5036666;28;20049;-69
2023/12/05 02:09:58;;;;;;;19.85;15.25;;;0.10;99.90;;;;;;5038415;28;20046;-69
2023/12/05 02:12:24;;;;;;;21.13;16.38;;;0.10;99.90;;;;;;5036843;28;20112;-70
2023/12/05 02:14:50;;;;;;;21.00;16.75;;;0.20;99.90;;;;;;5037447;28;20132;-69
2023/12/05 02:17:35;;;;;;;22.85;17.15;;;0.10;99.90;;;;;;5038536;28;20395;-69
2023/12/05 02:20:10;;;;;;;20.90;15.52;;;0.20;99.90;;;;;;5038351;28;20096;-69
2023/12/05 02:23:01;;;;;;;22.45;16.42;;;0.10;99.90;;;;;;5036829;28;20084;-69
2023/12/05 02:25:53;;;;;;;25.08;16.98;;;0.10;99.90;;;;;;5037866;28;20495;-69
2023/12/05 02:28:19;;;;;;;21.52;16.67;;;0.70;99.90;;;;;;5038384;28;20049;-69
2023/12/05 02:30:45;;;;;;;22.30;16.33;;;0.10;99.90;;;;;;5037722;28;20037;-69
2023/12/05 02:33:12;;;;;;;22.80;18.10;;;0.20;99.90;;;;;;5038255;28;20045;-69
2023/12/05 02:35:38;;;;;;;21.73;16.90;;;0.20;99.90;;;;;;5037627;28;20045;-69
2023/12/05 02:38:22;;;;;;;23.92;17.35;;;0.10;99.90;;;;;;5020875;28;20372;-68
2023/12/05 02:40:59;;;;;;;23.92;17.23;;;0.20;99.90;;;;;;5037923;28;20045;-69
2023/12/05 02:43:31;;;;;;;22.17;14.88;;;0.40;99.90;;;;;;5035003;28;20049;-68
2023/12/05 02:45:58;;;;;;;24.65;17.58;;;0.20;99.90;;;;;;5034067;28;20122;-69
2023/12/05 02:48:25;;;;;;;24.10;18.75;;;0.10;99.90;;;;;;5034678;28;20559;-69
2023/12/05 02:50:52;;;;;;;22.35;17.50;;;0.20;99.90;;;;;;5034654;28;20438;-69
2023/12/05 02:53:18;;;;;;;22.25;17.98;;;0.10;99.90;;;;;;5033702;28;20048;-69
2023/12/05 02:55:46;;;;;;;22.77;18.40;;;0.20;99.90;;;;;;5034667;28;20045;-70
2023/12/05 02:58:12;;;;;;;22.88;17.73;;;0.10;99.90;;;;;;5034723;28;20041;-68
2023/12/05 03:00:38;;;;;;;22.98;18.15;;;0.20;99.90;;;;;;5034425;28;20537;-69
2023/12/05 03:03:03;;;;;;;24.63;19.60;;;0.20;99.90;;;;;;5033844;28;20049;-69
2023/12/05 03:05:29;;;;;;;23.30;17.23;;;0.20;99.90;;;;;;5034512;28;20084;-72
2023/12/05 03:07:55;;;;;;;23.15;17.33;;;0.20;99.90;;;;;;5034922;28;20498;-70
2023/12/05 03:10:20;;;;;;;22.52;17.83;;;0.20;99.90;;;;;;5017279;28;20132;-69
2023/12/05 03:12:46;;;;;;;23.35;17.40;;;0.20;99.90;;;;;;5033812;28;20045;-70
2023/12/05 03:15:12;;;;;;;23.20;18.80;;;0.30;99.90;;;;;;5033551;28;20046;-69
2023/12/05 03:17:37;;;;;;;24.08;18.02;;;0.20;99.90;;;;;;5034224;28;20127;-70
2023/12/05 03:20:04;;;;;;;23.80;18.63;;;0.20;99.90;;;;;;5034636;28;20103;-69
2023/12/05 03:22:30;;;;;;;25.85;19.05;;;0.20;99.90;;;;;;5034379;28;20046;-68
2023/12/05 03:24:55;;;;;;;25.15;19.95;;;0.10;99.90;;;;;;5032978;28;20056;-69
2023/12/05 03:27:21;;;;;;;24.52;19.40;;;0.30;99.90;;;;;;5034087;28;20391;-69
2023/12/05 03:29:47;;;;;;;25.98;20.38;;;0.20;99.90;;;;;;5032855;28;20041;-69
2023/12/05 03:32:13;;;;;;;24.30;18.60;;;0.20;99.90;;;;;;5016474;28;20049;-69
2023/12/05 03:34:39;;;;;;;24.70;19.65;;;0.10;99.90;;;;;;5034011;28;20079;-69
2023/12/05 03:37:04;;;;;;;25.27;20.52;;;0.20;99.90;;;;;;5033952;28;20064;-69
2023/12/05 03:39:30;;;;;;;26.20;20.00;;;0.10;99.90;;;;;;5033104;28;20045;-68
2023/12/05 03:41:56;;;;;;;27.13;21.08;;;0.20;99.90;;;;;;5033621;28;20046;-69
2023/12/05 03:44:21;;;;;;;27.58;20.90;;;0.30;99.90;;;;;;5034133;28;20053;-69
2023/12/05 03:46:47;;;;;;;27.60;20.80;;;0.10;99.90;;;;;;5033558;28;20045;-69
2023/12/05 03:49:13;;;;;;;25.20;18.88;;;0.10;99.90;;;;;;5034067;28;20053;-68
2023/12/05 03:51:39;;;;;;;27.40;20.38;;;0.10;99.90;;;;;;5032385;28;20060;-70
2023/12/05 03:54:04;;;;;;;25.05;20.08;;;0.10;99.90;;;;;;5032295;28;20128;-69
2023/12/05 03:56:30;;;;;;;27.27;20.75;;;0.10;99.90;;;;;;5015916;28;20045;-69
2023/12/05 03:58:56;;;;;;;28.00;21.35;;;0.10;99.90;;;;;;5033766;28;20080;-69
2023/12/05 04:01:21;;;;;;;28.98;20.52;;;0.10;99.90;;;;;;5032374;28;20116;-68
2023/12/05 04:03:47;;;;;;;26.00;18.98;;;0.10;99.90;;;;;;5033170;28;20091;-69
2023/12/05 04:06:20;;;;;;;28.73;21.02;;;0.20;99.90;;;;;;5032322;28;20046;-69
2023/12/05 04:08:47;;;;;;;29.45;20.90;;;0.10;99.90;;;;;;5033105;28;20045;-69
2023/12/05 04:11:13;;;;;;;26.40;21.05;;;0.10;99.90;;;;;;5033545;28;20053;-69
2023/12/05 04:13:39;;;;;;;27.75;21.15;;;0.10;99.90;;;;;;5032265;28;20130;-73
2023/12/05 04:16:06;;;;;;;30.65;22.00;;;0.10;99.90;;;;;;5032117;28;20518;-69
2023/12/05 04:18:31;;;;;;;29.30;22.60;;;0.10;99.90;;;;;;5033554;28;20088;-69
2023/12/05 04:20:57;;;;;;;28.67;21.40;;;0.60;99.90;;;;;;5032982;28;20084;-69
2023/12/05 04:23:23;;;;;;;27.40;21.20;;;0.00;99.90;;;;;;5033517;28;20053;-69
2023/12/05 04:25:48;;;;;;;29.33;20.83;;;0.00;99.90;;;;;;5033040;28;20140;-69
2023/12/05 04:28:14;;;;;;;28.35;21.17;;;0.00;99.90;;;;;;5033227;28;20453;-70
2023/12/05 04:30:40;;;;;;;28.13;21.15;;;0.00;99.90;;;;;;5032114;28;20064;-69
2023/12/05 04:33:05;;;;;;;28.70;20.80;;;0.00;99.90;;;;;;5031615;28;20088;-69
2023/12/05 04:35:32;;;;;;;28.90;21.42;;;0.00;99.90;;;;;;5015412;28;20103;-68
2023/12/05 04:37:57;;;;;;;30.05;21.98;;;0.00;99.90;;;;;;5031563;28;20085;-69
2023/12/05 04:40:23;;;;;;;28.85;21.98;;;0.00;99.90;;;;;;5031922;28;20100;-70
2023/12/05 04:42:49;;;;;;;27.92;20.88;;;0.50;99.90;;;;;;5031494;28;20049;-69
2023/12/05 04:45:16;;;;;;;29.88;22.38;;;0.00;99.90;;;;;;5032923;28;20428;-69
2023/12/05 04:47:41;;;;;;;29.58;21.30;;;0.50;99.90;;;;;;5032533;28;20046;-69
2023/12/05 04:50:09;;;;;;;29.98;21.95;;;0.00;99.90;;;;;;5032352;28;20049;-69
2023/12/05 04:52:34;;;;;;;30.80;22.45;;;0.00;99.90;;;;;;5032459;28;20483;-70
2023/12/05 04:55:01;;;;;;;28.90;21.23;;;0.00;99.90;;;;;;5031287;28;20049;-70
2023/12/05 04:57:27;;;;;;;29.40;21.40;;;0.00;99.90;;;;;;5031320;28;20049;-70
2023/12/05 04:59:53;;;;;;;30.60;23.35;;;0.00;99.90;;;;;;5032246;28;20140;-70
2023/12/05 05:02:18;;;;;;;28.27;20.00;;;0.00;99.90;;;;;;5032447;28;20175;-69
2023/12/05 05:04:44;;;;;;;27.55;21.45;;;0.00;99.90;;;;;;5031721;28;20053;-69
2023/12/05 05:07:11;;;;;;;30.95;21.77;;;0.20;99.90;;;;;;5031389;28;20069;-69
2023/12/05 05:09:39;;;;;;;29.95;22.00;;;0.00;99.90;;;;;;5032567;28;20056;-69
2023/12/05 05:12:08;;;;;;;31.77;22.33;;;0.00;99.90;;;;;;5031945;28;20120;-70
2023/12/05 05:14:36;;;;;;;30.13;21.83;;;0.00;99.90;;;;;;5015669;28;20067;-69
2023/12/05 05:17:03;;;;;;;27.45;20.83;;;0.20;99.90;;;;;;5031075;28;20053;-69
2023/12/05 05:19:30;;;;;;;28.77;21.02;;;0.00;99.90;;;;;;5032257;28;20541;-69
2023/12/05 05:21:56;;;;;;;29.83;22.08;;;0.00;99.90;;;;;;5030973;28;20398;-69
2023/12/05 05:24:21;;;;;;;25.88;20.35;;;0.00;99.90;;;;;;5032374;28;20045;-68
2023/12/05 05:26:47;;;;;;;27.80;20.60;;;0.10;99.90;;;;;;5032245;28;20388;-69
2023/12/05 05:29:13;;;;;;;29.10;21.33;;;0.00;99.90;;;;;;5031840;28;20050;-70
2023/12/05 05:31:38;;;;;;;26.50;19.17;;;0.00;99.90;;;;;;5031127;28;20054;-70
2023/12/05 05:34:04;;;;;;;26.48;20.02;;;0.00;99.90;;;;;;5031738;28;20435;-70
2023/12/05 05:36:30;;;;;;;27.98;20.80;;;0.00;99.90;;;;;;5032096;28;20080;-69
2023/12/05 05:38:55;;;;;;;28.75;21.23;;;0.00;99.90;;;;;;5031928;28;20168;-70
2023/12/05 05:41:21;;;;;;;30.25;20.50;;;0.10;99.90;;;;;;5015037;28;20175;-69
2023/12/05 05:43:47;;;;;;;31.63;22.58;;;0.00;99.90;;;;;;5031376;28;20049;-69
2023/12/05 05:46:13;;;;;;;28.23;20.27;;;0.00;99.90;;;;;;5031877;28;20666;-69
2023/12/05 05:48:38;;;;;;;29.13;20.92;;;0.00;99.90;;;;;;5032179;28;20042;-71
2023/12/05 05:51:05;;;;;;;28.15;21.42;;;0.10;99.90;;;;;;5030839;28;20045;-70
2023/12/05 05:53:31;;;;;;;27.92;21.00;;;0.00;99.90;;;;;;5031116;28;20076;-69
2023/12/05 05:56:00;;;;;;;28.33;20.77;;;0.00;99.90;;;;;;5031294;28;20049;-70
2023/12/05 05:58:25;;;;;;;30.77;21.98;;;0.00;99.90;;;;;;5031211;28;20049;-69
2023/12/05 06:00:51;;;;;;;28.83;20.92;;;0.50;99.90;;;;;;5032299;28;20052;-71
2023/12/05 06:03:17;;;;;;;29.15;21.40;;;0.00;99.90;;;;;;5031885;28;20145;-69
2023/12/05 06:05:42;;;;;;;28.20;20.70;;;0.00;99.90;;;;;;5030741;28;20515;-70
2023/12/05 06:08:08;;;;;;;30.00;22.02;;;0.00;99.90;;;;;;5031944;28;20045;-69
2023/12/05 06:10:35;;;;;;;30.58;22.60;;;0.00;99.90;;;;;;5031082;28;20065;-68
2023/12/05 06:13:01;;;;;;;30.40;20.83;;;0.00;99.90;;;;;;5030681;28;20053;-69
2023/12/05 06:15:26;;;;;;;25.85;19.33;;;0.10;99.90;;;;;;5032044;28;20046;-69
2023/12/05 06:17:52;;;;;;;30.35;22.38;;;0.00;99.90;;;;;;5015087;28;20115;-69
2023/12/05 06:20:18;;;;;;;29.25;21.58;;;0.00;99.90;;;;;;5034152;28;20080;-70
2023/12/05 06:22:44;;;;;;;29.35;21.95;;;0.00;99.90;;;;;;5034669;28;20514;-69
2023/12/05 06:25:09;;;;;;;30.45;23.17;;;0.50;99.90;;;;;;5035416;28;20133;-69
2023/12/05 06:27:35;;;;;;;29.65;22.25;;;0.00;99.90;;;;;;5035553;28;20111;-70
2023/12/05 06:30:01;;;;;;;29.58;22.05;;;0.00;99.90;;;;;;5034007;28;20081;-70
2023/12/05 06:32:26;;;;;;;29.45;21.65;;;0.00;99.90;;;;;;5034771;28;20107;-69
2023/12/05 06:34:52;;;;;;;32.22;22.45;;;0.00;99.90;;;;;;5035333;28;20050;-69
2023/12/05 06:37:18;;;;;;;30.50;21.88;;;0.00;99.90;;;;;;5034925;28;20116;-70
2023/12/05 06:39:44;;;;;;;28.80;22.17;;;0.00;99.90;;;;;;5034845;28;20453;-71
2023/12/05 06:42:09;;;;;;;31.63;21.95;;;0.00;99.90;;;;;;5035118;28;20057;-69
2023/12/05 06:44:35;;;;;;;30.05;21.60;;;0.10;99.90;;;;;;5035277;28;20391;-70
2023/12/05 06:47:01;;;;;;;30.73;22.85;;;0.00;99.90;;;;;;5034430;28;20487;-73
2023/12/05 06:49:27;;;;;;;31.45;22.00;;;0.00;99.90;;;;;;5035254;28;20045;-70
2023/12/05 06:51:57;;;;;;;33.75;23.40;;;0.00;99.90;;;;;;5035370;28;20049;-70
2023/12/05 06:54:22;;;;;;;34.25;23.20;;;0.00;99.90;;;;;;5034703;28;20037;-69
2023/12/05 06:56:48;;;;;;;32.85;23.25;;;0.00;99.90;;;;;;5035146;28;20422;-72
2023/12/05 06:59:15;;;;;;;32.65;22.38;;;0.40;99.90;;;;;;5034720;28;20049;-70
2023/12/05 07:01:41;;;;;;;30.00;21.55;;;0.10;99.90;;;;;;5035005;28;20563;-70
2023/12/05 07:04:07;;;;;;;32.58;23.05;;;0.00;99.90;;;;;;5033613;28;20046;-69
2023/12/05 07:06:33;;;;;;;35.65;25.17;;;0.00;99.90;;;;;;5017379;28;20115;-71
2023/12/05 07:08:59;;;;;;;37.67;26.00;;;0.00;99.90;;;;;;5033718;28;20053;-70
2023/12/05 07:11:28;;;;;;;35.65;24.80;;;0.00;99.90;;;;;;5034418;28;20049;-70
2023/12/05 07:13:54;;;;;;;35.40;24.17;;;0.00;99.90;;;;;;5034687;28;20049;-69
2023/12/05 07:16:20;;;;;;;34.05;23.77;;;0.10;99.90;;;;;;5033462;28;20045;-70
2023/12/05 07:18:46;;;;;;;37.15;26.15;;;0.10;99.90;;;;;;5033249;28;20049;-68
2023/12/05 07:21:11;;;;;;;33.97;24.88;;;0.00;99.90;;;;;;5034164;28;20107;-69
2023/12/05 07:23:37;;;;;;;35.15;23.80;;;0.00;99.90;;;;;;5034851;28;20227;-70
2023/12/05 07:26:03;;;;;;;35.20;24.13;;;0.00;99.90;;;;;;5033358;28;20041;-68
2023/12/05 07:28:29;;;;;;;33.03;24.00;;;0.00;99.90;;;;;;5034133;28;20247;-70
2023/12/05 07:30:55;;;;;;;35.10;24.13;;;0.00;99.90;;;;;;5033631;28;20045;-68
2023/12/05 07:33:21;;;;;;;34.00;24.42;;;0.10;99.90;;;;;;5034267;28;20045;-69
2023/12/05 07:35:47;;;;;;;32.78;24.10;;;0.00;99.90;;;;;;5033239;28;20054;-69
2023/12/05 07:38:13;;;;;;;34.65;24.20;;;0.00;99.90;;;;;;5016334;28;20053;-68
2023/12/05 07:40:38;;;;;;;33.25;24.83;;;0.00;99.90;;;;;;5034197;28;20127;-69
2023/12/05 07:43:04;;;;;;;36.65;25.48;;;0.30;99.90;;;;;;5034319;28;20042;-68
2023/12/05 07:45:30;;;;;;;33.35;22.13;;;0.00;99.90;;;;;;5033671;28;20053;-68
2023/12/05 07:47:56;;;;;;;31.40;22.80;;;0.00;99.90;;;;;;5000124;28;20049;-69
2023/12/05 07:50:22;;;;;;;32.28;22.98;;;0.10;99.90;;;;;;5032585;28;20080;-69
2023/12/05 07:52:51;;;;;;;32.95;23.20;;;0.00;99.90;;;;;;5034083;28;20080;-69
2023/12/05 07:55:20;;;;;;;32.17;23.52;;;0.00;99.90;;;;;;5033282;28;20064;-69
2023/12/05 07:57:47;;;;;;;30.98;23.58;;;0.10;99.90;;;;;;5033987;28;20049;-68
2023/12/05 08:00:17;;;;;;;30.83;22.95;;;0.00;99.90;;;;;;5033224;28;20060;-70
2023/12/05 08:02:46;;;;;;;32.03;23.98;;;0.10;99.90;;;;;;5034289;28;20048;-69
2023/12/05 08:05:12;;;;;;;31.50;22.63;;;0.10;99.90;;;;;;5033333;28;20045;-73
2023/12/05 08:07:39;;;;;;;30.95;22.80;;;0.60;99.90;;;;;;5032516;28;20077;-70
2023/12/05 08:10:06;;;;;;;32.60;23.55;;;0.20;99.90;;;;;;5033533;28;20057;-71
2023/12/05 08:12:31;;;;;;;31.48;23.33;;;0.10;99.90;;;;;;5032074;28;20602;-71
2023/12/05 08:14:57;;;;;;;31.42;22.98;;;0.10;99.90;;;;;;5016129;28;20049;-71
2023/12/05 08:17:23;;;;;;;31.38;23.55;;;0.10;99.90;;;;;;5031970;28;20041;-70
2023/12/05 08:19:48;;;;;;;33.13;23.90;;;0.10;99.90;;;;;;5032995;28;20487;-71
2023/12/05 08:22:14;;;;;;;31.42;22.58;;;0.10;99.90;;;;;;5031308;28;20041;-72
2023/12/05 08:24:41;;;;;;;30.92;22.92;;;0.10;99.90;;;;;;5032214;28;20149;-70
2023/12/05 08:27:07;;;;;;;32.17;23.00;;;0.10;99.90;;;;;;5032153;28;20056;-71
2023/12/05 08:29:32;;;;;;;33.97;22.73;;;0.40;99.90;;;;;;5015413;28;20135;-71
2023/12/05 08:31:58;;;;;;;30.48;22.63;;;0.10;99.90;;;;;;5015628;28;20107;-71
2023/12/05 08:34:24;;;;;;;31.00;22.30;;;0.10;99.90;;;;;;5031618;28;20045;-71
2023/12/05 08:36:50;;;;;;;30.40;22.35;;;0.30;99.90;;;;;;5033120;28;20053;-71
2023/12/05 08:39:16;;;;;;;33.22;23.27;;;0.10;99.90;;;;;;5032499;28;20053;-72
2023/12/05 08:41:42;;;;;;;28.92;21.50;;;0.10;99.90;;;;;;5032317;28;20136;-70
2023/12/05 08:44:07;;;;;;;28.48;21.73;;;0.10;99.90;;;;;;5032988;28;20071;-70
2023/12/05 08:46:35;;;;;;;29.75;22.30;;;0.10;99.90;;;;;;5031379;28;20099;-70
2023/12/05 08:49:00;;;;;;;28.80;21.60;;;0.10;99.90;;;;;;5031815;28;20052;-71
2023/12/05 08:51:26;;;;;;;30.55;23.02;;;0.10;99.90;;;;;;5031325;28;20046;-72
2023/12/05 08:53:52;;;;;;;30.38;22.08;;;0.10;99.90;;;;;;5032813;28;20057;-71
2023/12/05 08:56:18;;;;;;;29.10;21.73;;;0.10;99.90;;;;;;5031543;28;20248;-75
2023/12/05 08:58:44;;;;;;;28.27;21.50;;;0.10;99.90;;;;;;5031412;28;20471;-70
2023/12/05 09:01:12;;;;;;;28.92;21.90;;;0.10;99.90;;;;;;5032720;28;20060;-69
2023/12/05 09:03:38;;;;;;;30.35;21.70;;;0.20;99.90;;;;;;5031066;28;20658;-69
2023/12/05 09:06:04;;;;;;;28.85;21.52;;;0.20;99.90;;;;;;5030684;28;20048;-74
2023/12/05 09:08:30;;;;;;;26.40;20.75;;;0.10;99.90;;;;;;5027132;28;20046;-70
2023/12/05 09:10:57;;;;;;;28.08;21.10;;;0.20;99.90;;;;;;5031468;28;20075;-69
2023/12/05 09:13:26;;;;;;;27.52;21.83;;;0.20;99.90;;;;;;5027939;28;20088;-72
2023/12/05 09:15:51;;;;;;;26.85;20.45;;;0.10;99.90;;;;;;5028880;28;20084;-71
2023/12/05 09:18:17;;;;;;;27.42;21.20;;;0.10;99.90;;;;;;5031778;28;20099;-70
2023/12/05 09:20:43;;;;;;;28.05;20.48;;;0.20;99.90;;;;;;5030970;28;20137;-70
2023/12/05 09:23:08;;;;;;;28.23;21.13;;;0.20;99.90;;;;;;5031017;28;20042;-69
2023/12/05 09:25:34;;;;;;;29.45;21.25;;;0.30;99.90;;;;;;5030522;28;20132;-70
2023/12/05 09:28:00;;;;;;;28.00;20.40;;;0.20;99.90;;;;;;5032281;28;20136;-70
2023/12/05 09:30:28;;;;;;;27.27;20.63;;;0.20;99.90;;;;;;5030607;28;20213;-70
2023/12/05 09:32:53;;;;;;;29.70;21.95;;;0.20;99.90;;;;;;5031098;28;20081;-69
2023/12/05 09:35:19;;;;;;;27.48;20.85;;;0.20;99.90;;;;;;5031926;28;20085;-69
2023/12/05 09:37:45;;;;;;;28.73;21.00;;;0.20;99.90;;;;;;5031821;28;20120;-70
2023/12/05 09:40:11;;;;;;;26.75;20.27;;;0.40;99.90;;;;;;5032117;28;20475;-70
2023/12/05 09:42:41;;;;;;;25.65;20.83;;;0.30;99.90;;;;;;5030088;28;20045;-69
2023/12/05 09:45:12;;;;;;;27.75;21.00;;;0.40;99.90;;;;;;5031820;28;20041;-68
2023/12/05 09:47:41;;;;;;;26.30;19.90;;;0.30;99.90;;;;;;5030268;28;20506;-70
2023/12/05 09:50:08;;;;;;;26.00;20.33;;;0.30;99.90;;;;;;5031874;28;20104;-69
2023/12/05 09:52:35;;;;;;;26.55;20.10;;;0.40;99.90;;;;;;5030838;28;20069;-68
2023/12/05 09:55:01;;;;;;;28.63;20.67;;;0.40;99.90;;;;;;5035977;28;20056;-69
2023/12/05 09:57:28;;;;;;;27.45;20.88;;;0.40;99.90;;;;;;5034864;28;20060;-69
2023/12/05 09:59:54;;;;;;;28.25;20.77;;;0.60;99.90;;;;;;5035583;28;20471;-69
2023/12/05 10:02:22;;;;;;;25.70;20.00;;;0.40;99.90;;;;;;5034832;28;20108;-68
2023/12/05 10:04:54;;;;;;;26.17;20.92;;;0.40;99.90;;;;;;5034292;28;20425;-68
2023/12/05 10:07:21;;;;;;;27.30;21.38;;;0.40;99.90;;;;;;5034706;28;20399;-69
2023/12/05 10:09:49;;;;;;;29.83;21.30;;;0.40;99.90;;;;;;5033629;28;20111;-69
2023/12/05 10:12:14;;;;;;;27.67;21.30;;;0.40;99.90;;;;;;5017601;28;20136;-70
2023/12/05 10:14:40;;;;;;;27.00;20.92;;;0.70;99.90;;;;;;5017941;28;20140;-70
2023/12/05 10:17:07;;;;;;;24.95;20.27;;;0.50;99.90;;;;;;5035568;28;20037;-69
2023/12/05 10:19:34;;;;;;;31.10;22.80;;;0.50;99.90;;;;;;5035041;28;20136;-71
2023/12/05 10:22:01;;;;;;;29.50;22.10;;;0.50;99.90;;;;;;5034547;28;20085;-71
2023/12/05 10:24:42;;;;;;;26.27;20.52;;;0.50;99.90;;;;;;5034230;28;20088;-71
2023/12/05 10:27:08;;;;;;;28.63;21.58;;;0.50;99.90;;;;;;5035159;28;20522;-70
2023/12/05 10:29:41;;;;;;;30.08;21.85;;;0.50;99.90;;;;;;5017633;28;20140;-71
2023/12/05 10:32:08;;;;;;;28.65;21.80;;;0.50;99.90;;;;;;5035075;28;20041;-70
2023/12/05 10:34:48;;;;;;;29.90;22.35;;;0.50;99.90;;;;;;5034887;28;20041;-70
2023/12/05 10:37:15;;;;;;;29.55;22.40;;;0.90;99.90;;;;;;5032862;28;20585;-70
2023/12/05 10:39:41;;;;;;;30.50;21.73;;;0.80;99.90;;;;;;5035199;28;20056;-69
2023/12/05 10:42:08;;;;;;;29.95;22.27;;;0.60;99.90;;;;;;5033896;28;20465;-70
2023/12/05 10:44:38;;;;;;;30.83;21.38;;;0.60;99.90;;;;;;5035101;28;20124;-72
2023/12/05 10:47:05;;;;;;;29.55;22.27;;;0.60;99.90;;;;;;5035287;28;20103;-70
2023/12/05 10:49:31;;;;;;;28.40;21.38;;;0.60;99.90;;;;;;5034041;28;20049;-76
2023/12/05 10:51:58;;;;;;;30.65;21.42;;;0.60;99.90;;;;;;5034876;28;20057;-71
2023/12/05 10:54:25;;;;;;;29.20;22.92;;;0.60;99.90;;;;;;5034153;28;20049;-71
2023/12/05 10:56:58;;;;;;;28.27;20.52;;;0.70;99.90;;;;;;5017389;28;20042;-72
2023/12/05 10:59:33;;;;;;;27.20;21.05;;;0.70;99.90;;;;;;5034380;28;20046;-73
2023/12/05 11:02:01;;;;;;;31.60;22.63;;;0.90;99.90;;;;;;5017399;28;20053;-72
2023/12/05 11:04:27;;;;;;;30.45;22.02;;;0.70;99.90;;;;;;5016459;28;20136;-71
2023/12/05 11:06:53;;;;;;;30.23;22.63;;;0.70;99.90;;;;;;5034440;28;20168;-71
2023/12/05 11:09:19;;;;;;;30.85;22.67;;;0.60;99.90;;;;;;5034004;28;20057;-72
2023/12/05 11:11:48;;;;;;;30.58;24.13;;;0.70;99.90;;;;;;5033147;28;20088;-71
2023/12/05 11:14:15;;;;;;;30.30;21.90;;;0.60;99.90;;;;;;5033495;28;20042;-69
2023/12/05 11:16:49;;;;;;;30.05;22.88;;;0.50;99.90;;;;;;5034604;28;20045;-71
2023/12/05 11:19:47;;;;;;;31.98;23.73;;;1.00;99.90;;;;;;5034947;28;20045;-71
2023/12/05 11:22:35;;;;;;;29.38;22.63;;;0.60;99.90;;;;;;5034935;28;20084;-71
2023/12/05 11:25:07;;;;;;;30.30;23.33;;;0.60;99.90;;;;;;5016822;28;20046;-70
2023/12/05 11:27:54;;;;;;;34.08;24.83;;;0.50;99.90;;;;;;5033031;28;20487;-70
2023/12/05 11:30:26;;;;;;;30.55;23.08;;;0.50;99.90;;;;;;5033802;28;20491;-69
2023/12/05 11:32:57;;;;;;;32.03;23.58;;;0.60;99.90;;;;;;5034216;28;20057;-70
2023/12/05 11:35:50;;;;;;;30.77;23.48;;;0.60;99.90;;;;;;5034338;28;20056;-70
2023/12/05 11:38:19;;;;;;;32.42;23.80;;;0.60;99.90;;;;;;5033201;28;20487;-71
2023/12/05 11:41:15;;;;;;;33.75;24.20;;;0.60;99.90;;;;;;5033956;28;20128;-70
2023/12/05 11:43:44;;;;;;;31.77;22.67;;;0.50;99.90;;;;;;5032949;28;20449;-71
2023/12/05 11:46:10;;;;;;;32.60;24.27;;;0.60;99.90;;;;;;5016238;28;20083;-70
2023/12/05 11:48:35;;;;;;;31.40;23.42;;;0.50;99.90;;;;;;5033090;28;20081;-72
2023/12/05 11:51:04;;;;;;;33.80;24.17;;;0.50;99.90;;;;;;5032633;28;20124;-71
2023/12/05 11:53:30;;;;;;;34.05;24.67;;;0.50;99.90;;;;;;5033877;28;20560;-71
2023/12/05 11:55:57;;;;;;;34.35;24.00;;;0.50;99.90;;;;;;5032614;28;20042;-73
2023/12/05 11:58:29;;;;;;;33.70;25.30;;;0.50;99.90;;;;;;5032406;28;20056;-72
2023/12/05 12:01:03;;;;;;;37.80;26.38;;;0.50;99.90;;;;;;5032433;28;20391;-73
2023/12/05 12:03:51;;;;;;;33.50;24.65;;;0.60;99.90;;;;;;5033190;28;20123;-72
2023/12/05 12:06:22;;;;;;;33.50;24.23;;;0.40;99.90;;;;;;5032915;28;20045;-72
2023/12/05 12:08:51;;;;;;;33.83;25.35;;;0.50;99.90;;;;;;5016116;28;20045;-72
2023/12/05 12:11:17;;;;;;;33.75;24.67;;;0.50;99.90;;;;;;5033790;28;20084;-73
2023/12/05 12:13:43;;;;;;;34.08;24.67;;;0.50;99.90;;;;;;5016198;28;20060;-76
2023/12/05 12:16:18;;;;;;;34.97;25.23;;;0.70;99.90;;;;;;5032053;28;20045;-73
2023/12/05 12:18:44;;;;;;;33.90;25.27;;;0.60;99.90;;;;;;5032276;28;20398;-76
2023/12/05 12:21:10;;;;;;;35.55;25.55;;;0.50;99.90;;;;;;5016141;28;20037;-73
2023/12/05 12:23:36;;;;;;;34.38;24.60;;;0.50;99.90;;;;;;5016247;28;20052;-73
2023/12/05 12:26:02;;;;;;;37.65;25.80;;;0.50;99.90;;;;;;5032161;28;20061;-73
2023/12/05 12:28:31;;;;;;;36.72;26.73;;;0.50;99.90;;;;;;5032409;28;20384;-73
2023/12/05 12:30:58;;;;;;;33.28;25.35;;;1.20;99.90;;;;;;5031806;28;20072;-73
2023/12/05 12:33:37;;;;;;;33.53;26.02;;;0.50;99.90;;;;;;5032681;28;20052;-73
2023/12/05 12:36:03;;;;;;;35.40;25.77;;;0.50;99.90;;;;;;5015112;28;20089;-73